Etusivu
METAR-TAF:

METAR-TAF

Lentoasemat :

San Angelo Regional Airport (Mathis Field)

San Angelo, Texas, Yhdysvallat

Leveyspiiri: 31-21-05N, Pituuspiiri: 100-29-38W, korkeus merenpinnasta: 584 m

Tämänhetkinen sää

Tämä raportti tehtiin 1 tunti ja 13 minuuttia sitten, kello 09.51 UTC
Tuuli 8 kn pohjoisesta
Lämpötila 11°C
Kosteus 58%
Ilmanpaine 1022 hPa
Näkyvyys: 16.1 km
selkeää

METAR: KSJT 060951Z AUTO 35008KT 10SM CLR 11/03 A3017 RMK AO2 SLP205 T01060028

Aika: 05:04 (11:04 UTC)

Sääennuste

Tämä raportti tehtiin 5 tuntia ja 44 minuuttia sitten, kello 05.20 UTC
Ennuste voimassa 06. päivästä klo 06 UTC - 07. päivään klo 06 UTC
Tuuli 10 kn lännestä
Näkyvyys: 10 km
Hajanaisia pilviä 25000 ft:n korkeudessa
From 06. päivästä klo 0800 UTC
Tuuli 11 kn pohjoisen/luoteesta
Näkyvyys: 10 km
selkeää
From 06. päivästä klo 1800 UTC
Tuuli 10 kn pohjoisesta
Näkyvyys: 10 km
selkeää

TAF: KSJT 060520Z 0606/0706 26010KT P6SM SCT250 FM060800 33011KT P6SM SKC FM061800 36010KT P6SM SKC

Säähavainnot ja -ennusteet yli 4000 lentoasemalta (METAR- ja TAF-raportit).

Käytössä olevat sääasemat on merkitty karttaan keltaisilla ja punaisilla pisteillä.

Aseta hiiri pisteen päälle nähdäksesi sääaseman nimen.

Klikkaa sitten nähdäksesi säähavainnot ja -ennusteet.

Kartan vaihtaminen: klikkaa mustalla rastilla varustettuja vihreitä pisteitä, niin voit zoomata sisään; viivalla varustettua vihreää pistettä, niin voit zoomata ulos tai vihreitä nuolia, niin pääset viereisille kartoille.


METAR-TAF: